createdAt,value
2023-01-31T00:01:35.216Z,77.62
2023-01-31T00:04:04.619Z,76.88
2023-01-31T00:06:37.474Z,76.23
2023-01-31T00:09:05.931Z,76.82
2023-01-31T00:11:33.112Z,77.49
2023-01-31T00:14:00.777Z,76.09
2023-01-31T00:16:27.882Z,76.72
2023-01-31T00:18:54.784Z,76.00
2023-01-31T00:21:23.944Z,76.77
2023-01-31T00:23:51.556Z,75.80
2023-01-31T00:26:24.639Z,75.87
2023-01-31T00:28:53.053Z,74.70
2023-01-31T00:31:21.100Z,76.17
2023-01-31T00:33:50.154Z,75.32
2023-01-31T00:36:19.523Z,76.64
2023-01-31T00:38:49.490Z,75.02
2023-01-31T00:41:21.406Z,75.16
2023-01-31T00:43:48.689Z,76.31
2023-01-31T00:46:15.616Z,76.35
2023-01-31T00:48:42.543Z,75.78
2023-01-31T00:51:09.366Z,76.23
2023-01-31T00:53:37.030Z,76.29
2023-01-31T00:56:13.665Z,75.53
2023-01-31T00:58:41.403Z,75.98
2023-01-31T01:01:14.856Z,76.66
2023-01-31T01:03:43.199Z,77.70
2023-01-31T01:06:10.856Z,77.58
2023-01-31T01:08:38.930Z,77.94
2023-01-31T01:11:15.472Z,78.33
2023-01-31T01:13:42.884Z,76.75
2023-01-31T01:16:15.622Z,76.51
2023-01-31T01:18:42.322Z,77.50
2023-01-31T01:21:16.023Z,76.23
2023-01-31T01:23:43.028Z,75.73
2023-01-31T01:26:25.115Z,77.32
2023-01-31T01:28:52.564Z,77.50
2023-01-31T01:31:20.189Z,77.74
2023-01-31T01:33:48.460Z,77.53
2023-01-31T01:36:18.122Z,77.86
2023-01-31T01:38:45.703Z,78.69
2023-01-31T01:41:13.546Z,77.60
2023-01-31T01:43:45.063Z,77.49
2023-01-31T01:46:25.375Z,76.96
2023-01-31T01:48:58.402Z,76.30
2023-01-31T01:51:25.188Z,75.80
2023-01-31T01:53:55.971Z,75.59
2023-01-31T01:56:29.547Z,75.12
2023-01-31T01:58:58.498Z,75.94
2023-01-31T02:01:27.541Z,76.80
2023-01-31T02:03:54.291Z,76.47
2023-01-31T02:06:21.901Z,77.37
2023-01-31T02:08:48.912Z,77.53
2023-01-31T02:11:22.713Z,78.35
2023-01-31T02:13:51.536Z,81.05
2023-01-31T02:16:18.228Z,77.92
2023-01-31T02:18:47.860Z,75.87
2023-01-31T02:22:13.052Z,77.22
2023-01-31T02:24:45.686Z,77.04
2023-01-31T02:27:40.400Z,76.27
2023-01-31T02:30:34.311Z,75.44
2023-01-31T02:33:10.010Z,75.40
2023-01-31T02:36:15.561Z,76.70
2023-01-31T02:39:19.476Z,76.22
2023-01-31T02:41:58.010Z,76.78
2023-01-31T02:44:51.016Z,75.47
2023-01-31T02:47:21.160Z,76.51
2023-01-31T02:49:56.685Z,76.91
2023-01-31T02:52:26.034Z,77.45
2023-01-31T02:55:28.611Z,77.13
2023-01-31T02:57:57.630Z,77.09
2023-01-31T03:00:25.141Z,77.26
2023-01-31T03:02:51.973Z,76.67
2023-01-31T03:05:20.094Z,77.31
2023-01-31T03:07:55.799Z,75.42
2023-01-31T03:10:49.979Z,75.77
2023-01-31T03:13:25.750Z,75.49
2023-01-31T03:16:17.778Z,74.85
2023-01-31T03:18:53.532Z,74.86
2023-01-31T03:21:29.507Z,74.59
2023-01-31T03:23:57.100Z,74.30
2023-01-31T03:26:25.057Z,74.44
2023-01-31T03:28:57.004Z,74.45
2023-01-31T03:31:27.967Z,74.92
2023-01-31T03:33:58.194Z,76.07
2023-01-31T03:36:46.776Z,74.27
2023-01-31T03:39:57.620Z,75.83
2023-01-31T03:42:36.577Z,75.50
2023-01-31T03:45:19.104Z,76.18
2023-01-31T03:47:49.089Z,77.92
2023-01-31T03:50:21.107Z,76.75
2023-01-31T03:52:53.257Z,76.48
2023-01-31T03:55:24.911Z,74.95
2023-01-31T03:57:54.136Z,74.46
2023-01-31T04:00:22.113Z,73.58
2023-01-31T04:02:58.753Z,74.13
2023-01-31T04:05:30.585Z,76.83
2023-01-31T04:08:00.886Z,76.01
2023-01-31T04:10:30.511Z,77.69
2023-01-31T04:12:57.343Z,75.87
2023-01-31T04:15:24.126Z,75.69
2023-01-31T04:17:50.748Z,75.33
2023-01-31T04:20:17.432Z,76.39
2023-01-31T04:22:44.063Z,77.10
2023-01-31T04:25:11.385Z,77.15
2023-01-31T04:27:39.067Z,76.85
2023-01-31T04:30:07.256Z,76.66
2023-01-31T04:32:33.873Z,76.06
2023-01-31T04:35:02.360Z,77.73
2023-01-31T04:37:29.163Z,76.68
2023-01-31T04:39:55.800Z,76.78
2023-01-31T04:42:22.381Z,77.33
2023-01-31T04:44:49.172Z,77.70
2023-01-31T04:47:15.781Z,77.40
2023-01-31T04:49:44.061Z,77.59
2023-01-31T04:52:11.196Z,78.43
2023-01-31T04:54:37.867Z,77.06
2023-01-31T04:57:04.585Z,78.01
2023-01-31T04:59:31.297Z,76.43
2023-01-31T05:01:58.167Z,77.70
2023-01-31T05:04:26.245Z,76.74
2023-01-31T05:06:53.075Z,78.00
2023-01-31T05:09:20.327Z,78.81
2023-01-31T05:11:47.336Z,78.49
2023-01-31T05:14:14.952Z,78.17
2023-01-31T05:16:43.993Z,78.60
2023-01-31T05:19:11.087Z,78.57
2023-01-31T05:21:54.917Z,77.77
2023-01-31T05:24:26.679Z,77.78
2023-01-31T05:26:58.229Z,79.19
2023-01-31T05:29:29.821Z,78.32
2023-01-31T05:31:59.268Z,78.01
2023-01-31T05:34:28.650Z,78.50
2023-01-31T05:36:56.229Z,78.06
2023-01-31T05:39:22.908Z,79.22
2023-01-31T05:41:49.548Z,77.83
2023-01-31T05:44:16.342Z,77.32
2023-01-31T05:46:42.996Z,78.66
2023-01-31T05:49:09.673Z,77.76
2023-01-31T05:51:36.543Z,78.51
2023-01-31T05:54:03.147Z,78.67
2023-01-31T05:56:29.773Z,78.17
2023-01-31T05:58:56.584Z,78.11
2023-01-31T06:01:25.559Z,78.88
2023-01-31T06:03:52.329Z,78.52
2023-01-31T06:06:19.654Z,79.31
2023-01-31T06:08:46.232Z,78.67
2023-01-31T06:11:13.542Z,78.38
2023-01-31T06:13:43.596Z,77.23
2023-01-31T06:16:11.258Z,76.13
2023-01-31T06:18:37.870Z,78.11
2023-01-31T06:21:04.673Z,77.54
2023-01-31T06:23:31.829Z,76.75
2023-01-31T06:25:58.511Z,76.29
2023-01-31T06:28:25.273Z,76.14
2023-01-31T06:30:51.976Z,77.19
2023-01-31T06:33:18.832Z,78.99
2023-01-31T06:35:45.561Z,78.06
2023-01-31T06:38:13.394Z,78.38
2023-01-31T06:40:40.014Z,77.77
2023-01-31T06:43:06.705Z,78.30
2023-01-31T06:45:33.293Z,79.95
2023-01-31T06:48:02.921Z,78.29
2023-01-31T06:50:29.688Z,80.20
2023-01-31T06:52:56.620Z,79.16
2023-01-31T06:55:23.251Z,79.18
2023-01-31T06:57:50.376Z,79.14
2023-01-31T07:00:21.163Z,79.23
2023-01-31T07:02:48.265Z,78.85
2023-01-31T07:05:15.303Z,78.42
2023-01-31T07:07:41.917Z,79.79
2023-01-31T07:10:09.509Z,78.75
2023-01-31T07:12:36.755Z,79.71
2023-01-31T07:15:03.678Z,78.38
2023-01-31T07:17:30.404Z,78.30
2023-01-31T07:19:57.094Z,78.15
2023-01-31T07:22:23.685Z,78.61
2023-01-31T07:24:50.996Z,78.39
2023-01-31T07:27:17.995Z,78.37
2023-01-31T07:29:44.778Z,79.63
2023-01-31T07:32:11.809Z,79.00
2023-01-31T07:34:38.437Z,78.34
2023-01-31T07:37:05.053Z,78.63
2023-01-31T07:39:32.269Z,77.80
2023-01-31T07:41:58.919Z,77.86
2023-01-31T07:44:25.571Z,76.87
2023-01-31T07:46:54.662Z,76.78
2023-01-31T07:49:21.318Z,76.83
2023-01-31T07:51:48.186Z,75.98
2023-01-31T07:54:17.485Z,75.37
2023-01-31T07:56:44.214Z,75.72
2023-01-31T07:59:12.611Z,75.43
2023-01-31T08:01:57.498Z,75.89
2023-01-31T08:04:24.137Z,77.03
2023-01-31T08:06:54.266Z,76.98
2023-01-31T08:09:21.441Z,78.36
2023-01-31T08:11:48.008Z,77.28
2023-01-31T08:14:14.650Z,78.53
2023-01-31T08:16:41.636Z,78.94
2023-01-31T08:19:08.294Z,78.13
2023-01-31T08:21:34.992Z,77.93
2023-01-31T08:24:01.712Z,76.82
2023-01-31T08:26:30.684Z,76.41
2023-01-31T08:28:57.524Z,76.70
2023-01-31T08:31:26.469Z,77.39
2023-01-31T08:33:53.928Z,76.73
2023-01-31T08:36:22.568Z,79.70
2023-01-31T08:38:50.357Z,79.10
2023-01-31T08:41:18.633Z,78.95
2023-01-31T08:43:56.247Z,78.89
2023-01-31T08:46:42.345Z,78.79
2023-01-31T08:49:10.261Z,77.83
2023-01-31T08:51:36.910Z,77.67
2023-01-31T08:54:04.003Z,77.73
2023-01-31T08:56:31.156Z,78.13
2023-01-31T08:59:00.646Z,78.22
2023-01-31T09:01:29.476Z,77.14
2023-01-31T09:04:00.273Z,78.45
2023-01-31T09:06:27.758Z,76.78
2023-01-31T09:08:58.541Z,77.93
2023-01-31T09:11:28.955Z,77.26
2023-01-31T09:13:55.833Z,78.26
2023-01-31T09:16:22.501Z,78.28
2023-01-31T09:18:49.180Z,78.02
2023-01-31T09:21:18.578Z,77.53
2023-01-31T09:23:48.213Z,77.42
2023-01-31T09:26:15.881Z,76.50
2023-01-31T09:28:43.458Z,77.54
2023-01-31T09:31:13.050Z,77.74
2023-01-31T09:33:40.212Z,79.04
2023-01-31T09:36:09.397Z,78.53
2023-01-31T09:38:37.408Z,76.87
2023-01-31T09:41:17.380Z,75.70
2023-01-31T09:43:48.156Z,77.68
2023-01-31T09:46:18.090Z,77.10
2023-01-31T09:48:49.452Z,76.91
2023-01-31T09:51:19.729Z,76.55
2023-01-31T09:53:49.201Z,77.93
2023-01-31T09:56:23.037Z,78.55
2023-01-31T09:59:12.653Z,78.60
2023-01-31T10:01:53.115Z,77.22
2023-01-31T10:04:40.968Z,79.99
2023-01-31T10:07:23.598Z,79.48
2023-01-31T10:09:56.065Z,81.93
2023-01-31T10:12:37.028Z,79.63
2023-01-31T10:15:07.009Z,81.29
2023-01-31T10:17:38.629Z,81.20
2023-01-31T10:20:16.368Z,82.52
2023-01-31T10:22:52.324Z,81.79
2023-01-31T10:25:21.928Z,82.05
2023-01-31T10:27:51.703Z,81.05
2023-01-31T10:30:22.498Z,80.20
2023-01-31T10:33:23.627Z,79.46
2023-01-31T10:35:52.902Z,80.02
2023-01-31T10:38:24.815Z,79.44
2023-01-31T10:41:15.433Z,78.68
2023-01-31T10:43:48.744Z,79.44
2023-01-31T10:46:18.699Z,80.07
2023-01-31T10:48:47.444Z,80.78
2023-01-31T10:51:51.598Z,80.96
2023-01-31T10:55:00.957Z,80.05
2023-01-31T10:57:27.893Z,80.16
2023-01-31T10:59:55.116Z,79.29
2023-01-31T11:02:26.239Z,81.16
2023-01-31T11:04:55.244Z,81.67
2023-01-31T11:07:28.541Z,81.35
2023-01-31T11:09:55.607Z,81.27
2023-01-31T11:12:23.493Z,81.52
2023-01-31T11:15:16.307Z,81.19
2023-01-31T11:17:43.775Z,80.99
2023-01-31T11:20:27.356Z,80.59
2023-01-31T11:22:54.716Z,79.53
2023-01-31T11:25:27.201Z,80.36
2023-01-31T11:27:59.577Z,81.11
2023-01-31T11:30:34.990Z,80.18
2023-01-31T11:33:01.681Z,79.53
2023-01-31T11:35:33.734Z,79.73
2023-01-31T11:38:04.060Z,80.35
2023-01-31T11:40:36.549Z,81.15
2023-01-31T11:43:22.859Z,79.90
2023-01-31T11:46:01.085Z,80.40
2023-01-31T11:48:39.811Z,80.65
2023-01-31T11:51:06.625Z,79.05
2023-01-31T11:53:44.006Z,79.65
2023-01-31T11:56:13.784Z,79.11
2023-01-31T11:58:40.853Z,79.12
2023-01-31T12:01:13.598Z,78.19
2023-01-31T12:04:01.339Z,78.47
2023-01-31T12:06:37.822Z,78.57
2023-01-31T12:09:18.708Z,79.45
2023-01-31T12:11:56.923Z,79.31
2023-01-31T12:14:25.105Z,80.15
2023-01-31T12:16:54.906Z,81.05
2023-01-31T12:19:31.572Z,81.82
2023-01-31T12:22:04.529Z,80.72
2023-01-31T12:24:49.976Z,82.65
2023-01-31T12:27:39.402Z,81.47
2023-01-31T12:30:48.219Z,81.30
2023-01-31T12:33:33.267Z,81.54
2023-01-31T12:36:16.369Z,81.28
2023-01-31T12:39:07.446Z,82.00
2023-01-31T12:41:41.933Z,81.47
2023-01-31T12:44:38.597Z,81.89
2023-01-31T12:47:16.398Z,81.05
2023-01-31T12:50:20.669Z,81.13
2023-01-31T12:52:47.288Z,82.46
2023-01-31T12:55:20.561Z,80.92
2023-01-31T12:58:15.107Z,82.20
2023-01-31T13:00:51.027Z,81.91
2023-01-31T13:03:38.130Z,82.04
2023-01-31T13:06:15.534Z,81.18
2023-01-31T13:09:07.807Z,83.03
2023-01-31T13:11:40.558Z,83.40
2023-01-31T13:14:13.484Z,83.33
2023-01-31T13:16:45.475Z,83.55
2023-01-31T13:19:40.000Z,86.32
2023-01-31T13:22:12.649Z,89.11
2023-01-31T13:24:41.275Z,90.42
2023-01-31T13:27:21.549Z,87.92
2023-01-31T13:29:59.498Z,91.26
2023-01-31T13:32:30.739Z,92.69
2023-01-31T13:35:05.544Z,90.84
2023-01-31T13:37:35.756Z,91.00
2023-01-31T13:40:21.167Z,90.54
2023-01-31T13:42:48.139Z,94.25
2023-01-31T13:45:28.529Z,93.53
2023-01-31T13:48:08.636Z,94.39
2023-01-31T13:50:42.238Z,94.66
2023-01-31T13:53:20.514Z,93.82
2023-01-31T13:55:48.415Z,93.59
2023-01-31T13:58:35.297Z,92.75
2023-01-31T14:01:04.650Z,93.70
2023-01-31T14:03:31.462Z,94.18
2023-01-31T14:06:02.008Z,92.99
2023-01-31T14:08:37.699Z,92.24
2023-01-31T14:11:25.358Z,92.43
2023-01-31T14:14:18.921Z,93.14
2023-01-31T14:16:46.409Z,92.34
2023-01-31T14:19:19.145Z,93.89
2023-01-31T14:21:52.519Z,92.92
2023-01-31T14:24:21.915Z,85.67
2023-01-31T14:26:48.528Z,83.71
2023-01-31T14:29:17.304Z,78.87
2023-01-31T14:31:44.931Z,81.93
2023-01-31T14:34:18.625Z,81.19
2023-01-31T14:37:11.594Z,81.28
2023-01-31T14:39:56.964Z,81.45
2023-01-31T14:42:23.579Z,81.71
2023-01-31T14:44:54.445Z,80.55
2023-01-31T14:47:35.922Z,82.53
2023-01-31T14:50:36.606Z,82.56
2023-01-31T14:53:18.060Z,82.75
2023-01-31T14:56:03.419Z,82.06
2023-01-31T14:58:31.761Z,82.72
2023-01-31T15:01:01.098Z,83.13
2023-01-31T15:03:34.574Z,80.18
2023-01-31T15:06:11.684Z,80.61
2023-01-31T15:08:39.613Z,82.09
2023-01-31T15:11:08.078Z,82.11
2023-01-31T15:13:53.915Z,82.56
2023-01-31T15:16:23.702Z,83.44
2023-01-31T15:19:10.951Z,82.05
2023-01-31T15:22:03.714Z,81.69
2023-01-31T15:24:39.826Z,85.14
2023-01-31T15:27:22.037Z,82.63
2023-01-31T15:30:11.218Z,81.94
2023-01-31T15:32:50.273Z,83.44
2023-01-31T15:35:24.118Z,83.44
2023-01-31T15:38:02.646Z,85.40
2023-01-31T15:40:30.818Z,84.58
2023-01-31T15:43:27.107Z,85.06
2023-01-31T15:45:54.244Z,82.86
2023-01-31T15:48:22.214Z,83.66
2023-01-31T15:50:58.106Z,82.83
2023-01-31T15:53:32.007Z,83.41
2023-01-31T15:56:02.643Z,83.21
2023-01-31T15:58:30.640Z,83.70
2023-01-31T16:01:02.043Z,83.34
2023-01-31T16:03:32.199Z,83.87
2023-01-31T16:06:00.014Z,81.68
2023-01-31T16:08:32.717Z,82.55
2023-01-31T16:11:00.722Z,80.90
2023-01-31T16:13:28.115Z,80.88
2023-01-31T16:15:54.897Z,79.40
2023-01-31T16:18:21.641Z,81.20
2023-01-31T16:20:51.523Z,79.46
2023-01-31T16:23:24.051Z,79.30
2023-01-31T16:26:13.395Z,79.05
2023-01-31T16:28:45.535Z,79.75
2023-01-31T16:31:15.677Z,78.86
2023-01-31T16:33:50.471Z,79.50
2023-01-31T16:36:39.924Z,78.77
2023-01-31T16:39:07.066Z,80.08
2023-01-31T16:41:46.895Z,80.22
2023-01-31T16:44:20.087Z,79.56
2023-01-31T16:46:48.839Z,80.62
2023-01-31T16:49:24.149Z,81.16
2023-01-31T16:51:54.856Z,79.86
2023-01-31T16:54:30.737Z,79.50
2023-01-31T16:57:03.307Z,80.42
2023-01-31T16:59:39.335Z,79.46
2023-01-31T17:02:34.669Z,78.90
2023-01-31T17:05:14.891Z,78.91
2023-01-31T17:07:43.724Z,79.10
2023-01-31T17:10:22.989Z,78.94
2023-01-31T17:12:51.427Z,78.65
2023-01-31T17:15:20.490Z,78.51
2023-01-31T17:17:48.747Z,79.54
2023-01-31T17:20:16.962Z,78.35
2023-01-31T17:22:47.729Z,76.66
2023-01-31T17:25:24.339Z,77.36
2023-01-31T17:27:51.424Z,77.81
2023-01-31T17:30:20.298Z,76.61
2023-01-31T17:32:48.376Z,75.90
2023-01-31T17:35:18.211Z,77.66
2023-01-31T17:37:45.509Z,76.55
2023-01-31T17:40:12.272Z,78.49
2023-01-31T17:42:38.939Z,78.43
2023-01-31T17:45:07.232Z,78.11
2023-01-31T17:47:33.908Z,78.05
2023-01-31T17:50:00.779Z,77.50
2023-01-31T17:52:27.786Z,79.18
2023-01-31T17:54:56.765Z,79.00
2023-01-31T17:57:23.341Z,76.79
2023-01-31T17:59:50.089Z,76.50
2023-01-31T18:02:16.655Z,75.37
2023-01-31T18:04:43.236Z,75.27
2023-01-31T18:07:10.069Z,75.48
2023-01-31T18:09:36.885Z,74.13
2023-01-31T18:12:03.645Z,75.34
2023-01-31T18:14:30.404Z,74.50
2023-01-31T18:16:57.812Z,74.20
2023-01-31T18:19:24.684Z,75.45
2023-01-31T18:21:55.319Z,74.30
2023-01-31T18:24:22.722Z,75.26
2023-01-31T18:26:49.414Z,73.64
2023-01-31T18:29:19.750Z,72.62
2023-01-31T18:31:48.181Z,73.67
2023-01-31T18:34:15.358Z,72.07
2023-01-31T18:36:41.979Z,70.69
2023-01-31T18:39:09.127Z,71.35
2023-01-31T18:41:35.745Z,69.09
2023-01-31T18:44:02.358Z,69.33
2023-01-31T18:46:30.166Z,69.05
2023-01-31T18:48:56.882Z,70.00
2023-01-31T18:51:23.576Z,69.70
2023-01-31T18:53:50.236Z,71.05
2023-01-31T18:56:20.016Z,71.65
2023-01-31T18:58:49.746Z,74.73
2023-01-31T19:01:19.691Z,74.90
2023-01-31T19:03:50.049Z,75.61
2023-01-31T19:06:19.160Z,77.18
2023-01-31T19:08:51.038Z,76.89
2023-01-31T19:11:20.028Z,79.65
2023-01-31T19:13:46.818Z,79.14
2023-01-31T19:16:19.062Z,77.85
2023-01-31T19:18:46.015Z,78.75
2023-01-31T19:21:20.640Z,79.33
2023-01-31T19:23:48.349Z,79.85
2023-01-31T19:26:16.608Z,80.32
2023-01-31T19:28:44.289Z,79.32
2023-01-31T19:31:17.462Z,78.78
2023-01-31T19:33:49.077Z,79.67
2023-01-31T19:36:20.130Z,80.31
2023-01-31T19:38:47.178Z,81.39
2023-01-31T19:41:19.484Z,81.64
2023-01-31T19:43:48.524Z,80.99
2023-01-31T19:46:16.269Z,80.45
2023-01-31T19:48:43.075Z,81.02
2023-01-31T19:51:12.058Z,80.87
2023-01-31T19:53:39.242Z,79.95
2023-01-31T19:56:06.903Z,80.46
2023-01-31T19:58:33.694Z,79.73
2023-01-31T20:01:08.336Z,81.23
2023-01-31T20:03:35.445Z,80.19
2023-01-31T20:06:13.495Z,79.91
2023-01-31T20:08:40.479Z,78.75
2023-01-31T20:11:07.999Z,77.77
2023-01-31T20:13:35.333Z,76.70
2023-01-31T20:16:05.909Z,76.86
2023-01-31T20:18:33.572Z,76.05
2023-01-31T20:21:00.368Z,74.89
2023-01-31T20:23:28.610Z,75.01
2023-01-31T20:25:55.760Z,74.82
2023-01-31T20:28:23.319Z,74.54
2023-01-31T20:30:50.075Z,74.33
2023-01-31T20:33:17.136Z,74.17
2023-01-31T20:35:44.366Z,72.38
2023-01-31T20:38:11.861Z,72.96
2023-01-31T20:40:39.108Z,73.87
2023-01-31T20:43:06.070Z,73.44
2023-01-31T20:45:33.062Z,73.46
2023-01-31T20:48:02.959Z,72.86
2023-01-31T20:50:29.611Z,74.39
2023-01-31T20:52:57.514Z,75.20
2023-01-31T20:55:24.340Z,75.42
2023-01-31T20:57:59.967Z,75.50
2023-01-31T21:00:26.557Z,74.58
2023-01-31T21:02:53.457Z,74.82
2023-01-31T21:05:24.208Z,74.67
2023-01-31T21:07:53.877Z,74.60
2023-01-31T21:10:23.604Z,75.19
2023-01-31T21:12:54.193Z,74.57
2023-01-31T21:15:23.984Z,75.56
2023-01-31T21:17:54.229Z,75.53
2023-01-31T21:20:21.602Z,77.52
2023-01-31T21:22:49.868Z,76.92
2023-01-31T21:25:16.783Z,76.42
2023-01-31T21:27:43.817Z,76.57
2023-01-31T21:30:11.200Z,77.37
2023-01-31T21:32:37.756Z,76.85
2023-01-31T21:35:04.593Z,76.42
2023-01-31T21:37:33.752Z,78.18
2023-01-31T21:40:00.360Z,78.29
2023-01-31T21:42:29.364Z,78.46
2023-01-31T21:44:55.921Z,79.60
2023-01-31T21:47:24.909Z,78.97
2023-01-31T21:49:54.779Z,77.58
2023-01-31T21:52:24.663Z,77.63
2023-01-31T21:54:51.399Z,77.69
2023-01-31T21:57:17.998Z,76.75
2023-01-31T21:59:46.782Z,77.63
2023-01-31T22:02:13.542Z,78.17
2023-01-31T22:04:40.781Z,76.73
2023-01-31T22:07:11.660Z,76.72
2023-01-31T22:09:41.954Z,77.70
2023-01-31T22:12:11.910Z,76.80
2023-01-31T22:14:41.720Z,76.63
2023-01-31T22:17:09.009Z,77.89
2023-01-31T22:19:35.829Z,78.29
2023-01-31T22:22:03.341Z,78.56
2023-01-31T22:24:29.951Z,78.34
2023-01-31T22:26:56.544Z,78.70
2023-01-31T22:29:23.198Z,80.87
2023-01-31T22:31:51.198Z,80.67
2023-01-31T22:34:18.683Z,77.50
2023-01-31T22:36:46.281Z,76.97
2023-01-31T22:39:15.944Z,76.45
2023-01-31T22:41:44.608Z,79.01
2023-01-31T22:44:11.325Z,77.63
2023-01-31T22:46:38.703Z,78.84
2023-01-31T22:49:05.497Z,78.60
2023-01-31T22:51:35.639Z,78.34
2023-01-31T22:54:03.079Z,77.58
2023-01-31T22:56:33.984Z,77.19
2023-01-31T22:59:03.376Z,77.52
2023-01-31T23:01:36.674Z,75.88
2023-01-31T23:04:05.538Z,75.30
2023-01-31T23:06:35.606Z,75.17
2023-01-31T23:09:06.270Z,74.99
2023-01-31T23:11:33.356Z,74.64
2023-01-31T23:14:00.022Z,74.38
2023-01-31T23:16:47.007Z,74.61
2023-01-31T23:19:14.511Z,73.15
2023-01-31T23:21:42.757Z,74.04
2023-01-31T23:24:11.176Z,72.43
2023-01-31T23:26:40.870Z,72.35
2023-01-31T23:29:07.587Z,70.82
2023-01-31T23:31:34.447Z,71.45
2023-01-31T23:34:03.205Z,71.74
2023-01-31T23:36:29.786Z,70.66
2023-01-31T23:38:56.338Z,71.55
2023-01-31T23:41:22.942Z,71.02
2023-01-31T23:43:49.741Z,70.36
2023-01-31T23:46:18.881Z,69.53
2023-01-31T23:48:45.978Z,70.94
2023-01-31T23:51:12.584Z,69.49
2023-01-31T23:53:39.561Z,69.04
2023-01-31T23:56:06.642Z,68.31
2023-01-31T23:58:33.837Z,68.82
